createdAt,value
2019-04-04T00:01:22.661Z,19.80
2019-04-04T00:03:51.862Z,18.80
2019-04-04T00:06:20.623Z,19.02
2019-04-04T00:08:49.093Z,18.20
2019-04-04T00:11:17.558Z,18.67
2019-04-04T00:13:46.064Z,19.05
2019-04-04T00:16:15.976Z,17.82
2019-04-04T00:18:45.198Z,17.87
2019-04-04T00:21:13.762Z,17.95
2019-04-04T00:23:42.174Z,18.32
2019-04-04T00:26:11.400Z,17.32
2019-04-04T00:28:39.915Z,18.37
2019-04-04T00:31:08.809Z,18.62
2019-04-04T00:33:37.600Z,19.65
2019-04-04T00:36:06.046Z,18.62
2019-04-04T00:38:37.710Z,18.92
2019-04-04T00:41:04.991Z,18.87
2019-04-04T00:43:33.819Z,19.27
2019-04-04T00:46:02.278Z,18.50
2019-04-04T00:48:32.179Z,18.32
2019-04-04T00:51:01.032Z,19.42
2019-04-04T00:53:29.743Z,19.45
2019-04-04T00:55:58.438Z,21.15
2019-04-04T00:58:27.273Z,19.27
2019-04-04T01:00:55.711Z,19.85
2019-04-04T01:03:24.181Z,19.02
2019-04-04T01:05:52.582Z,18.40
2019-04-04T01:08:21.412Z,17.55
2019-04-04T01:10:50.218Z,18.80
2019-04-04T01:13:18.633Z,18.02
2019-04-04T01:15:47.443Z,19.65
2019-04-04T01:18:15.868Z,17.92
2019-04-04T01:20:44.323Z,18.95
2019-04-04T01:23:12.734Z,19.25
2019-04-04T01:25:41.186Z,18.20
2019-04-04T01:28:09.903Z,17.70
2019-04-04T01:30:38.316Z,18.37
2019-04-04T01:33:06.775Z,17.07
2019-04-04T01:35:36.482Z,18.80
2019-04-04T01:38:04.975Z,17.73
2019-04-04T01:40:33.860Z,17.62
2019-04-04T01:43:02.884Z,17.42
2019-04-04T01:45:31.290Z,18.05
2019-04-04T01:48:02.488Z,17.32
2019-04-04T01:50:31.899Z,17.52
2019-04-04T01:53:00.309Z,17.05
2019-04-04T01:55:29.066Z,16.87
2019-04-04T01:57:57.521Z,16.67
2019-04-04T02:00:25.930Z,17.70
2019-04-04T02:02:54.627Z,17.82
2019-04-04T02:05:23.072Z,17.23
2019-04-04T02:07:51.554Z,18.60
2019-04-04T02:10:20.361Z,17.50
2019-04-04T02:12:48.787Z,18.67
2019-04-04T02:15:17.260Z,17.90
2019-04-04T02:17:45.744Z,17.90
2019-04-04T02:20:14.182Z,17.67
2019-04-04T02:22:48.431Z,17.12
2019-04-04T02:25:16.878Z,18.07
2019-04-04T02:27:45.438Z,17.05
2019-04-04T02:30:16.014Z,18.10
2019-04-04T02:32:44.095Z,17.87
2019-04-04T02:35:12.535Z,18.30
2019-04-04T02:37:41.015Z,17.45
2019-04-04T02:40:10.051Z,17.48
2019-04-04T02:42:39.031Z,17.75
2019-04-04T02:45:07.527Z,17.37
2019-04-04T02:47:36.047Z,17.05
2019-04-04T02:50:06.019Z,17.57
2019-04-04T02:52:34.473Z,16.82
2019-04-04T02:55:02.912Z,17.52
2019-04-04T02:57:31.660Z,17.92
2019-04-04T03:00:00.394Z,16.62
2019-04-04T03:02:29.219Z,18.20
2019-04-04T03:04:57.921Z,17.00
2019-04-04T03:07:29.893Z,17.05
2019-04-04T03:09:56.701Z,16.50
2019-04-04T03:12:26.153Z,16.80
2019-04-04T03:14:55.337Z,16.05
2019-04-04T03:17:23.786Z,15.13
2019-04-04T03:19:52.477Z,14.70
2019-04-04T03:22:20.921Z,14.93
2019-04-04T03:24:49.479Z,15.30
2019-04-04T03:27:18.260Z,13.95
2019-04-04T03:29:46.727Z,15.28
2019-04-04T03:32:16.738Z,13.90
2019-04-04T03:34:50.087Z,14.20
2019-04-04T03:37:15.718Z,13.43
2019-04-04T03:39:44.151Z,11.33
2019-04-04T03:42:12.973Z,12.47
2019-04-04T03:44:41.568Z,9.20
2019-04-04T03:47:11.217Z,9.35
2019-04-04T03:49:40.060Z,9.78
2019-04-04T03:52:11.229Z,9.45
2019-04-04T03:54:38.637Z,9.38
2019-04-04T03:57:11.125Z,9.95
2019-04-04T03:59:37.514Z,10.15
2019-04-04T04:02:05.952Z,10.05
2019-04-04T04:04:34.726Z,10.85
2019-04-04T04:07:03.169Z,12.03
2019-04-04T04:09:31.577Z,13.08
2019-04-04T04:12:00.046Z,13.78
2019-04-04T04:14:28.862Z,12.25
2019-04-04T04:16:57.272Z,12.43
2019-04-04T04:19:29.872Z,13.15
2019-04-04T04:21:56.654Z,13.43
2019-04-04T04:24:26.716Z,11.83
2019-04-04T04:26:55.576Z,10.50
2019-04-04T04:29:24.137Z,10.68
2019-04-04T04:31:52.827Z,9.93
2019-04-04T04:34:21.393Z,10.75
2019-04-04T04:36:50.099Z,10.80
2019-04-04T04:39:18.544Z,11.15
2019-04-04T04:41:46.955Z,10.18
2019-04-04T04:44:15.403Z,9.63
2019-04-04T04:46:44.218Z,9.23
2019-04-04T04:49:13.008Z,8.40
2019-04-04T04:51:44.080Z,10.45
2019-04-04T04:54:11.551Z,13.28
2019-04-04T04:56:39.970Z,10.55
2019-04-04T04:59:08.663Z,9.68
2019-04-04T05:01:40.541Z,10.82
2019-04-04T05:04:08.150Z,10.35
2019-04-04T05:06:36.983Z,9.63
2019-04-04T05:09:06.294Z,10.00
2019-04-04T05:11:34.706Z,10.53
2019-04-04T05:14:03.157Z,11.10
2019-04-04T05:16:31.614Z,11.95
2019-04-04T05:19:00.370Z,8.85
2019-04-04T05:21:28.975Z,11.28
2019-04-04T05:23:57.444Z,9.33
2019-04-04T05:26:26.151Z,10.63
2019-04-04T05:28:57.022Z,10.72
2019-04-04T05:31:24.669Z,12.85
2019-04-04T05:33:53.500Z,11.83
2019-04-04T05:36:22.219Z,13.18
2019-04-04T05:38:50.658Z,13.88
2019-04-04T05:41:19.108Z,14.13
2019-04-04T05:43:47.515Z,11.33
2019-04-04T05:46:16.794Z,9.53
2019-04-04T05:48:46.366Z,9.15
2019-04-04T05:51:15.921Z,9.63
2019-04-04T05:53:44.465Z,10.13
2019-04-04T05:56:14.976Z,9.70
2019-04-04T05:58:42.968Z,10.70
2019-04-04T06:01:16.348Z,11.78
2019-04-04T06:03:47.213Z,11.43
2019-04-04T06:06:15.287Z,11.75
2019-04-04T06:08:43.780Z,12.35
2019-04-04T06:11:20.978Z,14.33
2019-04-04T06:13:48.423Z,14.60
2019-04-04T06:16:16.867Z,16.40
2019-04-04T06:18:45.643Z,14.90
2019-04-04T06:21:14.236Z,13.83
2019-04-04T06:23:42.652Z,11.63
2019-04-04T06:26:11.162Z,12.50
2019-04-04T06:28:39.566Z,15.00
2019-04-04T06:31:08.016Z,15.18
2019-04-04T06:33:36.418Z,17.92
2019-04-04T06:36:04.861Z,18.12
2019-04-04T06:38:33.308Z,19.92
2019-04-04T06:41:01.718Z,22.20
2019-04-04T06:43:30.167Z,21.20
2019-04-04T06:45:58.575Z,23.80
2019-04-04T06:48:29.336Z,23.05
2019-04-04T06:50:57.747Z,24.57
2019-04-04T06:53:31.970Z,24.50
2019-04-04T06:56:01.037Z,22.17
2019-04-04T06:58:29.605Z,22.07
2019-04-04T07:00:58.336Z,20.85
2019-04-04T07:03:27.847Z,20.88
2019-04-04T07:05:56.903Z,20.08
2019-04-04T07:08:25.704Z,19.90
2019-04-04T07:10:58.294Z,20.68
2019-04-04T07:13:27.308Z,22.22
2019-04-04T07:16:06.375Z,20.80
2019-04-04T07:18:24.736Z,19.62
2019-04-04T07:20:53.181Z,18.65
2019-04-04T07:23:21.947Z,19.37
2019-04-04T07:25:53.302Z,19.30
2019-04-04T07:28:20.943Z,18.57
2019-04-04T07:30:49.459Z,18.42
2019-04-04T07:33:20.016Z,19.57
2019-04-04T07:35:48.892Z,21.15
2019-04-04T07:38:18.288Z,23.25
2019-04-04T07:40:47.795Z,22.07
2019-04-04T07:43:17.130Z,22.98
2019-04-04T07:45:46.419Z,24.32
2019-04-04T07:48:17.659Z,23.12
2019-04-04T07:50:45.255Z,24.87
2019-04-04T07:53:14.051Z,26.65
2019-04-04T07:55:42.923Z,23.57
2019-04-04T07:58:11.378Z,24.52
2019-04-04T08:00:40.177Z,25.30
2019-04-04T08:03:08.607Z,22.37
2019-04-04T08:05:37.427Z,22.20
2019-04-04T08:08:06.218Z,23.45
2019-04-04T08:10:34.662Z,22.45
2019-04-04T08:13:03.063Z,20.88
2019-04-04T08:15:31.865Z,19.85
2019-04-04T08:18:00.587Z,19.62
2019-04-04T08:20:29.018Z,19.25
2019-04-04T08:22:57.459Z,18.95
2019-04-04T08:25:25.875Z,18.62
2019-04-04T08:27:54.391Z,18.67
2019-04-04T08:30:22.918Z,18.00
2019-04-04T08:32:51.335Z,17.82
2019-04-04T08:35:19.792Z,17.30
2019-04-04T08:37:48.205Z,15.05
2019-04-04T08:40:16.647Z,17.50
2019-04-04T08:42:45.450Z,18.48
2019-04-04T08:45:13.890Z,16.80
2019-04-04T08:47:42.295Z,17.40
2019-04-04T08:50:11.025Z,16.48
2019-04-04T08:52:39.438Z,16.55
2019-04-04T08:55:08.260Z,14.95
2019-04-04T08:57:36.667Z,15.10
2019-04-04T09:00:07.503Z,16.90
2019-04-04T09:02:35.922Z,14.83
2019-04-04T09:05:11.680Z,15.85
2019-04-04T09:07:36.058Z,15.85
2019-04-04T09:10:06.452Z,15.08
2019-04-04T09:12:34.901Z,16.97
2019-04-04T09:15:04.146Z,15.13
2019-04-04T09:17:32.595Z,15.83
2019-04-04T09:20:00.997Z,14.93
2019-04-04T09:22:29.856Z,14.85
2019-04-04T09:24:58.298Z,15.85
2019-04-04T09:27:26.713Z,15.10
2019-04-04T09:29:55.154Z,17.48
2019-04-04T09:32:24.066Z,15.75
2019-04-04T09:34:52.586Z,16.42
2019-04-04T09:37:20.995Z,14.98
2019-04-04T09:39:49.434Z,15.18
2019-04-04T09:42:17.838Z,15.10
2019-04-04T09:44:46.355Z,14.68
2019-04-04T09:47:14.826Z,14.13
2019-04-04T09:49:43.278Z,14.40
2019-04-04T09:52:12.010Z,14.63
2019-04-04T09:54:40.427Z,15.00
2019-04-04T09:57:08.927Z,13.30
2019-04-04T09:59:37.328Z,13.48
2019-04-04T10:02:05.787Z,15.23
2019-04-04T10:04:34.338Z,16.70
2019-04-04T10:07:02.750Z,14.98
2019-04-04T10:09:31.219Z,14.23
2019-04-04T10:12:00.009Z,16.07
2019-04-04T10:14:28.419Z,12.23
2019-04-04T10:16:57.227Z,12.78
2019-04-04T10:19:26.018Z,12.10
2019-04-04T10:21:54.462Z,10.60
2019-04-04T10:24:22.902Z,9.43
2019-04-04T10:26:51.351Z,10.68
2019-04-04T10:29:20.251Z,9.40
2019-04-04T10:31:48.659Z,9.90
2019-04-04T10:34:17.255Z,8.68
2019-04-04T10:36:45.915Z,8.70
2019-04-04T10:39:14.362Z,10.10
2019-04-04T10:41:42.768Z,7.47
2019-04-04T10:44:11.576Z,8.03
2019-04-04T10:46:39.967Z,6.17
2019-04-04T10:49:08.506Z,4.95
2019-04-04T10:51:36.911Z,6.37
2019-04-04T10:54:05.351Z,6.35
2019-04-04T10:56:33.750Z,5.53
2019-04-04T10:59:02.525Z,5.42
2019-04-04T11:01:30.922Z,5.22
2019-04-04T11:03:59.687Z,4.53
2019-04-04T11:06:28.473Z,4.08
2019-04-04T11:08:57.263Z,4.60
2019-04-04T11:11:25.667Z,4.78
2019-04-04T11:13:54.066Z,5.08
2019-04-04T11:16:29.909Z,4.92
2019-04-04T11:18:53.058Z,5.70
2019-04-04T11:21:21.502Z,5.33
2019-04-04T11:23:49.903Z,5.42
2019-04-04T11:26:18.309Z,5.40
2019-04-04T11:28:46.751Z,5.28
2019-04-04T11:31:15.450Z,5.20
2019-04-04T11:33:44.244Z,5.75
2019-04-04T11:36:12.643Z,4.42
2019-04-04T11:38:43.992Z,4.40
2019-04-04T11:41:11.607Z,3.98
2019-04-04T11:43:40.050Z,4.92
2019-04-04T11:46:08.454Z,4.47
2019-04-04T11:48:36.886Z,4.78
2019-04-04T11:51:05.634Z,5.58
2019-04-04T11:53:34.162Z,4.75
2019-04-04T11:56:02.590Z,5.60
2019-04-04T11:58:31.036Z,4.45
2019-04-04T12:01:13.005Z,4.75
2019-04-04T12:03:41.487Z,5.60
2019-04-04T12:06:10.182Z,5.30
2019-04-04T12:08:38.970Z,5.22
2019-04-04T12:11:07.502Z,5.55
2019-04-04T12:13:35.907Z,4.97
2019-04-04T12:16:04.345Z,5.58
2019-04-04T12:18:32.792Z,5.58
2019-04-04T12:21:01.190Z,5.85
2019-04-04T12:23:29.785Z,5.92
2019-04-04T12:25:58.582Z,5.17
2019-04-04T12:28:27.392Z,5.37
2019-04-04T12:30:55.823Z,4.90
2019-04-04T12:33:24.508Z,5.25
2019-04-04T12:35:53.415Z,6.10
2019-04-04T12:38:22.110Z,6.37
2019-04-04T12:40:50.848Z,5.37
2019-04-04T12:43:19.401Z,4.97
2019-04-04T12:45:47.911Z,5.65
2019-04-04T12:48:16.343Z,5.80
2019-04-04T12:50:45.029Z,5.90
2019-04-04T12:53:16.088Z,4.92
2019-04-04T12:55:44.839Z,5.42
2019-04-04T12:58:13.234Z,6.05
2019-04-04T13:00:42.070Z,5.95
2019-04-04T13:03:10.545Z,4.42
2019-04-04T13:05:39.051Z,4.20
2019-04-04T13:08:07.592Z,3.80
2019-04-04T13:10:36.486Z,3.62
2019-04-04T13:13:04.918Z,3.55
2019-04-04T13:15:33.350Z,2.92
2019-04-04T13:18:01.755Z,3.60
2019-04-04T13:20:30.197Z,3.42
2019-04-04T13:22:58.594Z,3.02
2019-04-04T13:25:27.492Z,2.75
2019-04-04T13:27:56.174Z,3.30
2019-04-04T13:30:24.606Z,2.90
2019-04-04T13:32:53.019Z,2.15
2019-04-04T13:35:21.446Z,2.52
2019-04-04T13:37:50.742Z,2.45
2019-04-04T13:40:19.190Z,2.85
2019-04-04T13:42:47.934Z,2.87
2019-04-04T13:45:16.720Z,3.10
2019-04-04T13:47:45.571Z,3.22
2019-04-04T13:50:13.978Z,2.80
2019-04-04T13:52:42.431Z,3.15
2019-04-04T13:55:10.967Z,1.98
2019-04-04T13:57:39.635Z,2.67
2019-04-04T14:00:08.540Z,2.42
2019-04-04T14:02:36.942Z,2.58
2019-04-04T14:05:10.138Z,2.15
2019-04-04T14:07:37.950Z,1.98
2019-04-04T14:10:07.426Z,1.92
2019-04-04T14:12:35.861Z,2.30
2019-04-04T14:15:09.280Z,2.52
2019-04-04T14:17:37.689Z,2.25
2019-04-04T14:20:10.717Z,2.37
2019-04-04T14:22:39.123Z,1.80
2019-04-04T14:25:07.640Z,2.42
2019-04-04T14:27:36.358Z,2.45
2019-04-04T14:30:08.012Z,2.87
2019-04-04T14:32:36.410Z,2.40
2019-04-04T14:35:07.202Z,2.65
2019-04-04T14:37:35.886Z,2.40
2019-04-04T14:40:06.162Z,2.08
2019-04-04T14:42:34.572Z,1.52
2019-04-04T14:45:06.325Z,1.90
2019-04-04T14:47:33.427Z,1.85
2019-04-04T14:50:04.621Z,1.82
2019-04-04T14:52:32.307Z,2.02
2019-04-04T14:55:00.746Z,2.60
2019-04-04T14:57:29.514Z,1.95
2019-04-04T14:59:58.303Z,1.60
2019-04-04T15:02:26.730Z,2.05
2019-04-04T15:04:55.527Z,2.00
2019-04-04T15:07:24.310Z,1.85
2019-04-04T15:09:52.751Z,2.10
2019-04-04T15:12:21.162Z,1.70
2019-04-04T15:14:49.579Z,2.20
2019-04-04T15:17:18.021Z,2.40
2019-04-04T15:19:46.463Z,2.40
2019-04-04T15:22:14.862Z,1.95
2019-04-04T15:24:43.499Z,2.45
2019-04-04T15:27:11.910Z,2.40
2019-04-04T15:29:40.445Z,2.50
2019-04-04T15:32:08.847Z,2.20
2019-04-04T15:34:37.646Z,1.85
2019-04-04T15:37:06.075Z,2.05
2019-04-04T15:39:34.519Z,2.15
2019-04-04T15:42:03.018Z,2.55
2019-04-04T15:44:31.457Z,2.00
2019-04-04T15:46:59.855Z,2.40
2019-04-04T15:49:28.319Z,2.60
2019-04-04T15:51:59.579Z,2.62
2019-04-04T15:54:27.786Z,5.20
2019-04-04T15:56:56.579Z,2.52
2019-04-04T15:59:25.303Z,2.40
2019-04-04T16:01:53.777Z,21.35
2019-04-04T16:04:22.652Z,4.25
2019-04-04T16:06:51.139Z,3.90
2019-04-04T16:09:20.098Z,7.00
2019-04-04T16:11:50.156Z,3.92
2019-04-04T16:14:18.598Z,3.60
2019-04-04T16:16:47.036Z,7.15
2019-04-04T16:19:15.473Z,3.65
2019-04-04T16:21:44.158Z,2.95
2019-04-04T16:24:12.893Z,2.85
2019-04-04T16:26:41.412Z,31.97
2019-04-04T16:29:09.809Z,5.72
2019-04-04T16:31:38.250Z,2.47
2019-04-04T16:34:06.938Z,3.55
2019-04-04T16:36:35.687Z,33.98
2019-04-04T16:39:07.555Z,3.80
2019-04-04T16:41:36.195Z,3.20
2019-04-04T16:44:05.482Z,2.80
2019-04-04T16:46:34.784Z,3.45
2019-04-04T16:49:03.226Z,2.87
2019-04-04T16:51:31.668Z,2.95
2019-04-04T16:54:00.123Z,3.30
2019-04-04T16:56:28.806Z,3.77
2019-04-04T16:58:57.203Z,3.55
2019-04-04T17:01:26.200Z,3.65
2019-04-04T17:04:01.431Z,3.00
2019-04-04T17:06:24.745Z,3.20
2019-04-04T17:08:53.550Z,13.90
2019-04-04T17:11:21.951Z,11.57
2019-04-04T17:13:50.408Z,2.80
2019-04-04T17:16:21.227Z,2.50
2019-04-04T17:18:48.991Z,2.87
2019-04-04T17:21:17.435Z,10.85
2019-04-04T17:23:46.337Z,4.33
2019-04-04T17:26:14.929Z,7.78
2019-04-04T17:28:43.578Z,3.75
2019-04-04T17:31:12.484Z,4.40
2019-04-04T17:33:41.156Z,3.90
2019-04-04T17:36:09.681Z,4.90
2019-04-04T17:38:38.582Z,3.72
2019-04-04T17:41:07.019Z,4.62
2019-04-04T17:43:36.745Z,5.83
2019-04-04T17:46:05.606Z,7.22
2019-04-04T17:48:34.626Z,5.47
2019-04-04T17:51:03.199Z,4.50
2019-04-04T17:53:31.900Z,4.40
2019-04-04T17:56:00.830Z,4.17
2019-04-04T17:58:29.853Z,4.10
2019-04-04T18:00:58.747Z,3.40
2019-04-04T18:03:27.179Z,3.25
2019-04-04T18:05:55.614Z,3.77
2019-04-04T18:08:24.015Z,3.55
2019-04-04T18:10:52.856Z,3.60
2019-04-04T18:13:21.254Z,2.85
2019-04-04T18:15:50.003Z,3.92
2019-04-04T18:18:18.926Z,3.67
2019-04-04T18:20:47.413Z,3.62
2019-04-04T18:23:15.834Z,3.60
2019-04-04T18:25:44.258Z,3.12
2019-04-04T18:28:12.716Z,4.28
2019-04-04T18:30:41.512Z,3.92
2019-04-04T18:33:09.947Z,3.87
2019-04-04T18:35:38.691Z,3.60
2019-04-04T18:38:07.132Z,4.28
2019-04-04T18:40:35.552Z,3.83
2019-04-04T18:43:03.996Z,4.30
2019-04-04T18:45:34.038Z,4.60
2019-04-04T18:48:02.483Z,4.97
2019-04-04T18:50:30.882Z,4.05
2019-04-04T18:52:59.319Z,4.35
2019-04-04T18:55:27.726Z,4.67
2019-04-04T18:57:56.139Z,4.50
2019-04-04T19:00:25.038Z,4.90
2019-04-04T19:02:53.774Z,4.25
2019-04-04T19:05:22.335Z,5.30
2019-04-04T19:07:50.734Z,5.00
2019-04-04T19:10:19.244Z,5.22
2019-04-04T19:12:48.007Z,4.97
2019-04-04T19:15:17.467Z,5.45
2019-04-04T19:17:46.285Z,5.25
2019-04-04T19:20:14.782Z,5.30
2019-04-04T19:22:43.191Z,5.28
2019-04-04T19:25:13.789Z,4.83
2019-04-04T19:27:41.993Z,5.33
2019-04-04T19:30:10.696Z,4.90
2019-04-04T19:32:39.096Z,4.92
2019-04-04T19:35:08.028Z,4.47
2019-04-04T19:37:36.431Z,4.80
2019-04-04T19:40:05.811Z,4.90
2019-04-04T19:42:34.210Z,4.12
2019-04-04T19:45:03.106Z,4.50
2019-04-04T19:47:31.935Z,5.00
2019-04-04T19:50:00.651Z,4.97
2019-04-04T19:52:29.094Z,5.03
2019-04-04T19:54:57.934Z,5.65
2019-04-04T19:57:26.387Z,4.97
2019-04-04T19:59:55.140Z,5.78
2019-04-04T20:02:23.551Z,6.08
2019-04-04T20:04:51.999Z,5.53
2019-04-04T20:07:20.470Z,5.55
2019-04-04T20:09:49.235Z,5.10
2019-04-04T20:12:17.830Z,5.35
2019-04-04T20:14:46.307Z,5.10
2019-04-04T20:17:15.043Z,5.80
2019-04-04T20:19:44.002Z,6.33
2019-04-04T20:22:12.441Z,6.10
2019-04-04T20:24:41.249Z,6.10
2019-04-04T20:27:09.962Z,6.70
2019-04-04T20:29:38.769Z,6.53
2019-04-04T20:32:07.216Z,6.62
2019-04-04T20:34:35.710Z,6.22
2019-04-04T20:37:04.158Z,5.90
2019-04-04T20:39:32.559Z,6.80
2019-04-04T20:42:01.428Z,7.17
2019-04-04T20:44:29.835Z,6.42
2019-04-04T20:46:58.566Z,6.10
2019-04-04T20:49:27.322Z,6.25
2019-04-04T20:51:55.718Z,6.85
2019-04-04T20:54:24.153Z,6.70
2019-04-04T20:56:52.554Z,7.35
2019-04-04T20:59:21.468Z,5.83
2019-04-04T21:01:49.898Z,6.47
2019-04-04T21:04:18.355Z,6.85
2019-04-04T21:06:47.171Z,6.78
2019-04-04T21:09:15.951Z,7.55
2019-04-04T21:11:45.051Z,6.97
2019-04-04T21:14:13.830Z,7.97
2019-04-04T21:16:42.240Z,7.45
2019-04-04T21:19:11.146Z,6.62
2019-04-04T21:21:39.499Z,6.60
2019-04-04T21:24:07.908Z,6.50
2019-04-04T21:26:36.747Z,6.97
2019-04-04T21:29:05.167Z,6.05
2019-04-04T21:31:33.583Z,6.75
2019-04-04T21:34:02.026Z,6.70
2019-04-04T21:36:30.430Z,6.45
2019-04-04T21:39:00.159Z,6.47
2019-04-04T21:41:28.558Z,6.70
2019-04-04T21:44:08.129Z,6.58
2019-04-04T21:46:27.078Z,7.83
2019-04-04T21:48:55.495Z,7.00
2019-04-04T21:51:23.935Z,7.28
2019-04-04T21:53:52.381Z,7.62
2019-04-04T21:56:21.178Z,7.67
2019-04-04T21:58:49.595Z,7.10
2019-04-04T22:01:18.278Z,8.55
2019-04-04T22:03:46.744Z,8.45
2019-04-04T22:06:15.156Z,8.63
2019-04-04T22:08:43.555Z,8.80
2019-04-04T22:11:12.007Z,8.48
2019-04-04T22:13:40.743Z,8.53
2019-04-04T22:16:09.471Z,8.30
2019-04-04T22:18:38.251Z,8.85
2019-04-04T22:21:06.692Z,9.35
2019-04-04T22:23:35.462Z,8.25
2019-04-04T22:26:03.907Z,8.78
2019-04-04T22:28:32.315Z,8.23
2019-04-04T22:31:00.824Z,8.05
2019-04-04T22:33:29.229Z,7.95
2019-04-04T22:35:57.663Z,7.47
2019-04-04T22:38:26.108Z,7.15
2019-04-04T22:40:54.515Z,9.10
2019-04-04T22:43:22.955Z,7.83
2019-04-04T22:45:51.407Z,9.00
2019-04-04T22:48:19.843Z,7.83
2019-04-04T22:50:48.305Z,7.37
2019-04-04T22:53:16.714Z,8.00
2019-04-04T22:55:45.122Z,9.03
2019-04-04T22:58:13.839Z,7.55
2019-04-04T23:00:42.572Z,7.55
2019-04-04T23:03:11.083Z,8.08
2019-04-04T23:05:39.767Z,8.20
2019-04-04T23:08:08.211Z,8.55
2019-04-04T23:10:36.879Z,7.17
2019-04-04T23:13:05.626Z,8.60
2019-04-04T23:15:34.475Z,8.03
2019-04-04T23:18:02.935Z,7.75
2019-04-04T23:20:31.339Z,7.90
2019-04-04T23:23:01.173Z,7.85
2019-04-04T23:25:29.839Z,7.58
2019-04-04T23:27:58.694Z,7.85
2019-04-04T23:30:27.207Z,7.42
2019-04-04T23:32:55.620Z,7.65
2019-04-04T23:35:24.067Z,8.35
2019-04-04T23:37:52.467Z,7.22
2019-04-04T23:40:20.899Z,8.35
2019-04-04T23:42:49.356Z,7.53
2019-04-04T23:45:17.776Z,7.15
2019-04-04T23:47:46.318Z,7.80
2019-04-04T23:50:14.765Z,8.70
2019-04-04T23:52:43.674Z,7.17
2019-04-04T23:55:12.034Z,8.93
2019-04-04T23:57:40.945Z,8.13
